sensor_id;sensor_type;location;lat;lon;timestamp;P1;durP1;ratioP1;P2;durP2;ratioP2
11743;SDS011;5929;51.906;7.674;2022-10-16T00:00:34;10.43;;;5.68;;
11743;SDS011;5929;51.906;7.674;2022-10-16T00:03:03;9.90;;;6.53;;
11743;SDS011;5929;51.906;7.674;2022-10-16T00:05:31;11.75;;;6.90;;
11743;SDS011;5929;51.906;7.674;2022-10-16T00:07:58;15.32;;;7.63;;
11743;SDS011;5929;51.906;7.674;2022-10-16T00:10:25;13.48;;;7.75;;
11743;SDS011;5929;51.906;7.674;2022-10-16T00:12:54;18.85;;;8.55;;
11743;SDS011;5929;51.906;7.674;2022-10-16T00:15:20;14.63;;;8.43;;
11743;SDS011;5929;51.906;7.674;2022-10-16T00:17:47;17.30;;;8.82;;
11743;SDS011;5929;51.906;7.674;2022-10-16T00:20:15;15.25;;;7.90;;
11743;SDS011;5929;51.906;7.674;2022-10-16T00:22:42;14.65;;;8.40;;
11743;SDS011;5929;51.906;7.674;2022-10-16T00:25:09;11.65;;;7.18;;
11743;SDS011;5929;51.906;7.674;2022-10-16T00:27:36;16.83;;;9.10;;
11743;SDS011;5929;51.906;7.674;2022-10-16T00:30:03;15.57;;;8.88;;
11743;SDS011;5929;51.906;7.674;2022-10-16T00:32:33;16.00;;;8.73;;
11743;SDS011;5929;51.906;7.674;2022-10-16T00:35:00;14.55;;;8.55;;
11743;SDS011;5929;51.906;7.674;2022-10-16T00:37:30;16.35;;;9.15;;
11743;SDS011;5929;51.906;7.674;2022-10-16T00:39:57;13.45;;;8.77;;
11743;SDS011;5929;51.906;7.674;2022-10-16T00:42:23;12.77;;;7.97;;
11743;SDS011;5929;51.906;7.674;2022-10-16T00:44:51;20.00;;;8.88;;
11743;SDS011;5929;51.906;7.674;2022-10-16T00:47:21;13.38;;;8.07;;
11743;SDS011;5929;51.906;7.674;2022-10-16T00:49:53;14.38;;;8.95;;
11743;SDS011;5929;51.906;7.674;2022-10-16T00:52:24;14.68;;;8.57;;
11743;SDS011;5929;51.906;7.674;2022-10-16T00:54:52;14.55;;;8.93;;
11743;SDS011;5929;51.906;7.674;2022-10-16T00:57:20;18.15;;;9.23;;
11743;SDS011;5929;51.906;7.674;2022-10-16T00:59:47;18.25;;;9.80;;
11743;SDS011;5929;51.906;7.674;2022-10-16T01:02:15;16.05;;;9.23;;
11743;SDS011;5929;51.906;7.674;2022-10-16T01:04:44;14.70;;;8.73;;
11743;SDS011;5929;51.906;7.674;2022-10-16T01:07:14;18.40;;;9.48;;
11743;SDS011;5929;51.906;7.674;2022-10-16T01:09:53;15.85;;;9.73;;
11743;SDS011;5929;51.906;7.674;2022-10-16T01:12:28;16.55;;;10.45;;
11743;SDS011;5929;51.906;7.674;2022-10-16T01:15:02;14.85;;;9.50;;
11743;SDS011;5929;51.906;7.674;2022-10-16T01:17:38;16.63;;;10.15;;
11743;SDS011;5929;51.906;7.674;2022-10-16T01:20:10;18.20;;;10.13;;
11743;SDS011;5929;51.906;7.674;2022-10-16T01:22:48;15.88;;;10.25;;
11743;SDS011;5929;51.906;7.674;2022-10-16T01:28:34;19.60;;;10.48;;
11743;SDS011;5929;51.906;7.674;2022-10-16T01:31:04;22.15;;;10.65;;
11743;SDS011;5929;51.906;7.674;2022-10-16T01:33:33;19.38;;;11.38;;
11743;SDS011;5929;51.906;7.674;2022-10-16T01:36:09;17.83;;;11.10;;
11743;SDS011;5929;51.906;7.674;2022-10-16T01:38:39;21.42;;;11.68;;
11743;SDS011;5929;51.906;7.674;2022-10-16T01:41:09;20.63;;;11.10;;
11743;SDS011;5929;51.906;7.674;2022-10-16T01:43:41;18.95;;;11.48;;
11743;SDS011;5929;51.906;7.674;2022-10-16T01:46:11;20.30;;;11.27;;
11743;SDS011;5929;51.906;7.674;2022-10-16T01:48:44;19.27;;;12.43;;
11743;SDS011;5929;51.906;7.674;2022-10-16T01:51:12;20.45;;;12.20;;
11743;SDS011;5929;51.906;7.674;2022-10-16T01:53:40;20.13;;;11.80;;
11743;SDS011;5929;51.906;7.674;2022-10-16T01:56:09;22.63;;;12.55;;
11743;SDS011;5929;51.906;7.674;2022-10-16T01:58:41;18.25;;;11.43;;
11743;SDS011;5929;51.906;7.674;2022-10-16T02:01:12;18.52;;;11.27;;
11743;SDS011;5929;51.906;7.674;2022-10-16T02:03:43;18.20;;;11.73;;
11743;SDS011;5929;51.906;7.674;2022-10-16T02:06:12;20.70;;;12.00;;
11743;SDS011;5929;51.906;7.674;2022-10-16T02:08:39;18.20;;;11.95;;
11743;SDS011;5929;51.906;7.674;2022-10-16T02:11:09;21.75;;;12.38;;
11743;SDS011;5929;51.906;7.674;2022-10-16T02:13:37;17.83;;;12.65;;
11743;SDS011;5929;51.906;7.674;2022-10-16T02:16:11;20.98;;;11.52;;
11743;SDS011;5929;51.906;7.674;2022-10-16T02:18:39;18.85;;;12.10;;
11743;SDS011;5929;51.906;7.674;2022-10-16T02:21:08;19.67;;;12.00;;
11743;SDS011;5929;51.906;7.674;2022-10-16T02:23:41;20.20;;;11.85;;
11743;SDS011;5929;51.906;7.674;2022-10-16T02:26:17;21.98;;;11.77;;
11743;SDS011;5929;51.906;7.674;2022-10-16T02:28:51;20.05;;;11.95;;
11743;SDS011;5929;51.906;7.674;2022-10-16T02:31:24;18.98;;;11.30;;
11743;SDS011;5929;51.906;7.674;2022-10-16T02:33:54;15.77;;;10.85;;
11743;SDS011;5929;51.906;7.674;2022-10-16T02:36:23;18.35;;;11.10;;
11743;SDS011;5929;51.906;7.674;2022-10-16T02:38:50;18.90;;;11.73;;
11743;SDS011;5929;51.906;7.674;2022-10-16T02:41:18;17.75;;;11.23;;
11743;SDS011;5929;51.906;7.674;2022-10-16T02:43:47;18.40;;;11.90;;
11743;SDS011;5929;51.906;7.674;2022-10-16T02:46:14;20.83;;;11.85;;
11743;SDS011;5929;51.906;7.674;2022-10-16T02:48:42;17.00;;;11.50;;
11743;SDS011;5929;51.906;7.674;2022-10-16T02:51:09;17.80;;;12.02;;
11743;SDS011;5929;51.906;7.674;2022-10-16T02:53:36;16.95;;;10.35;;
11743;SDS011;5929;51.906;7.674;2022-10-16T02:56:03;16.92;;;9.73;;
11743;SDS011;5929;51.906;7.674;2022-10-16T02:58:30;15.35;;;10.88;;
11743;SDS011;5929;51.906;7.674;2022-10-16T03:00:56;18.25;;;10.82;;
11743;SDS011;5929;51.906;7.674;2022-10-16T03:03:25;15.10;;;10.30;;
11743;SDS011;5929;51.906;7.674;2022-10-16T03:05:53;17.52;;;11.23;;
11743;SDS011;5929;51.906;7.674;2022-10-16T03:08:20;18.55;;;10.45;;
11743;SDS011;5929;51.906;7.674;2022-10-16T03:10:50;13.68;;;10.35;;
11743;SDS011;5929;51.906;7.674;2022-10-16T03:13:17;16.95;;;9.90;;
11743;SDS011;5929;51.906;7.674;2022-10-16T03:15:46;19.48;;;9.77;;
11743;SDS011;5929;51.906;7.674;2022-10-16T03:18:13;15.55;;;10.30;;
11743;SDS011;5929;51.906;7.674;2022-10-16T03:20:40;16.98;;;9.63;;
11743;SDS011;5929;51.906;7.674;2022-10-16T03:23:09;17.17;;;9.75;;
11743;SDS011;5929;51.906;7.674;2022-10-16T03:25:36;16.63;;;10.20;;
11743;SDS011;5929;51.906;7.674;2022-10-16T03:28:03;15.80;;;9.77;;
11743;SDS011;5929;51.906;7.674;2022-10-16T03:30:30;14.30;;;9.73;;
11743;SDS011;5929;51.906;7.674;2022-10-16T03:32:57;13.20;;;9.85;;
11743;SDS011;5929;51.906;7.674;2022-10-16T03:35:24;18.75;;;9.73;;
11743;SDS011;5929;51.906;7.674;2022-10-16T03:37:51;12.95;;;8.10;;
11743;SDS011;5929;51.906;7.674;2022-10-16T03:40:19;12.77;;;8.20;;
11743;SDS011;5929;51.906;7.674;2022-10-16T03:42:46;13.85;;;9.10;;
11743;SDS011;5929;51.906;7.674;2022-10-16T03:45:13;14.10;;;8.98;;
11743;SDS011;5929;51.906;7.674;2022-10-16T03:47:40;14.07;;;8.40;;
11743;SDS011;5929;51.906;7.674;2022-10-16T03:50:07;14.18;;;8.35;;
11743;SDS011;5929;51.906;7.674;2022-10-16T03:52:34;11.48;;;7.93;;
11743;SDS011;5929;51.906;7.674;2022-10-16T03:55:01;15.35;;;8.73;;
11743;SDS011;5929;51.906;7.674;2022-10-16T03:57:30;13.32;;;8.25;;
11743;SDS011;5929;51.906;7.674;2022-10-16T03:59:56;14.23;;;8.60;;
11743;SDS011;5929;51.906;7.674;2022-10-16T04:02:23;15.02;;;8.50;;
11743;SDS011;5929;51.906;7.674;2022-10-16T04:04:52;11.60;;;7.20;;
11743;SDS011;5929;51.906;7.674;2022-10-16T04:07:19;12.07;;;7.97;;
11743;SDS011;5929;51.906;7.674;2022-10-16T04:09:49;12.63;;;7.80;;
11743;SDS011;5929;51.906;7.674;2022-10-16T04:12:17;12.98;;;8.38;;
11743;SDS011;5929;51.906;7.674;2022-10-16T04:14:45;12.88;;;7.88;;
11743;SDS011;5929;51.906;7.674;2022-10-16T04:17:12;16.00;;;8.38;;
11743;SDS011;5929;51.906;7.674;2022-10-16T04:19:38;13.63;;;7.85;;
11743;SDS011;5929;51.906;7.674;2022-10-16T04:22:05;14.63;;;8.23;;
11743;SDS011;5929;51.906;7.674;2022-10-16T04:24:32;19.20;;;8.23;;
11743;SDS011;5929;51.906;7.674;2022-10-16T04:26:59;11.85;;;8.30;;
11743;SDS011;5929;51.906;7.674;2022-10-16T04:29:25;14.02;;;8.50;;
11743;SDS011;5929;51.906;7.674;2022-10-16T04:31:54;12.63;;;7.57;;
11743;SDS011;5929;51.906;7.674;2022-10-16T04:34:21;14.20;;;7.63;;
11743;SDS011;5929;51.906;7.674;2022-10-16T04:36:48;13.52;;;7.85;;
11743;SDS011;5929;51.906;7.674;2022-10-16T04:39:15;10.45;;;6.90;;
11743;SDS011;5929;51.906;7.674;2022-10-16T04:41:42;15.10;;;7.93;;
11743;SDS011;5929;51.906;7.674;2022-10-16T04:44:09;11.30;;;7.20;;
11743;SDS011;5929;51.906;7.674;2022-10-16T04:46:36;13.13;;;7.65;;
11743;SDS011;5929;51.906;7.674;2022-10-16T04:49:04;13.27;;;6.97;;
11743;SDS011;5929;51.906;7.674;2022-10-16T04:51:33;15.35;;;6.72;;
11743;SDS011;5929;51.906;7.674;2022-10-16T04:54:00;13.02;;;6.63;;
11743;SDS011;5929;51.906;7.674;2022-10-16T04:56:27;10.73;;;6.75;;
11743;SDS011;5929;51.906;7.674;2022-10-16T04:58:54;9.50;;;6.40;;
11743;SDS011;5929;51.906;7.674;2022-10-16T05:01:21;11.57;;;6.22;;
11743;SDS011;5929;51.906;7.674;2022-10-16T05:03:48;12.60;;;6.68;;
11743;SDS011;5929;51.906;7.674;2022-10-16T05:06:16;10.95;;;6.50;;
11743;SDS011;5929;51.906;7.674;2022-10-16T05:08:42;14.80;;;6.72;;
11743;SDS011;5929;51.906;7.674;2022-10-16T05:11:09;11.68;;;6.25;;
11743;SDS011;5929;51.906;7.674;2022-10-16T05:13:36;10.23;;;6.60;;
11743;SDS011;5929;51.906;7.674;2022-10-16T05:16:03;8.65;;;6.07;;
11743;SDS011;5929;51.906;7.674;2022-10-16T05:18:30;11.70;;;6.53;;
11743;SDS011;5929;51.906;7.674;2022-10-16T05:20:57;11.32;;;6.72;;
11743;SDS011;5929;51.906;7.674;2022-10-16T05:23:25;9.18;;;5.68;;
11743;SDS011;5929;51.906;7.674;2022-10-16T05:25:53;8.93;;;5.95;;
11743;SDS011;5929;51.906;7.674;2022-10-16T05:28:20;10.82;;;6.50;;
11743;SDS011;5929;51.906;7.674;2022-10-16T05:30:47;9.10;;;6.07;;
11743;SDS011;5929;51.906;7.674;2022-10-16T05:33:14;11.65;;;5.97;;
11743;SDS011;5929;51.906;7.674;2022-10-16T05:35:41;11.18;;;6.00;;
11743;SDS011;5929;51.906;7.674;2022-10-16T05:38:08;8.13;;;5.85;;
11743;SDS011;5929;51.906;7.674;2022-10-16T05:40:37;8.32;;;5.38;;
11743;SDS011;5929;51.906;7.674;2022-10-16T05:43:04;8.88;;;5.30;;
11743;SDS011;5929;51.906;7.674;2022-10-16T05:45:31;11.50;;;6.53;;
11743;SDS011;5929;51.906;7.674;2022-10-16T05:47:57;9.45;;;5.63;;
11743;SDS011;5929;51.906;7.674;2022-10-16T05:50:25;13.43;;;5.80;;
11743;SDS011;5929;51.906;7.674;2022-10-16T05:52:52;8.73;;;5.75;;
11743;SDS011;5929;51.906;7.674;2022-10-16T05:55:18;9.65;;;5.72;;
11743;SDS011;5929;51.906;7.674;2022-10-16T05:57:47;9.45;;;5.60;;
11743;SDS011;5929;51.906;7.674;2022-10-16T06:00:13;10.70;;;5.22;;
11743;SDS011;5929;51.906;7.674;2022-10-16T06:02:40;10.75;;;5.32;;
11743;SDS011;5929;51.906;7.674;2022-10-16T06:05:07;7.82;;;5.35;;
11743;SDS011;5929;51.906;7.674;2022-10-16T06:07:34;6.85;;;4.45;;
11743;SDS011;5929;51.906;7.674;2022-10-16T06:10:02;8.32;;;4.70;;
11743;SDS011;5929;51.906;7.674;2022-10-16T06:12:29;8.85;;;4.57;;
11743;SDS011;5929;51.906;7.674;2022-10-16T06:15:00;6.30;;;3.90;;
11743;SDS011;5929;51.906;7.674;2022-10-16T06:17:29;5.35;;;3.85;;
11743;SDS011;5929;51.906;7.674;2022-10-16T06:19:56;7.13;;;4.47;;
11743;SDS011;5929;51.906;7.674;2022-10-16T06:22:22;8.25;;;4.15;;
11743;SDS011;5929;51.906;7.674;2022-10-16T06:24:49;12.57;;;4.55;;
11743;SDS011;5929;51.906;7.674;2022-10-16T06:27:16;8.25;;;3.70;;
11743;SDS011;5929;51.906;7.674;2022-10-16T06:29:43;8.70;;;3.47;;
11743;SDS011;5929;51.906;7.674;2022-10-16T06:32:11;7.95;;;3.80;;
11743;SDS011;5929;51.906;7.674;2022-10-16T06:34:38;6.13;;;3.67;;
11743;SDS011;5929;51.906;7.674;2022-10-16T06:37:06;6.18;;;3.50;;
11743;SDS011;5929;51.906;7.674;2022-10-16T06:39:32;5.90;;;3.22;;
11743;SDS011;5929;51.906;7.674;2022-10-16T06:41:59;6.90;;;3.25;;
11743;SDS011;5929;51.906;7.674;2022-10-16T06:44:26;5.10;;;3.05;;
11743;SDS011;5929;51.906;7.674;2022-10-16T06:46:55;6.25;;;3.03;;
11743;SDS011;5929;51.906;7.674;2022-10-16T06:49:24;7.88;;;3.05;;
11743;SDS011;5929;51.906;7.674;2022-10-16T06:51:50;5.38;;;2.90;;
11743;SDS011;5929;51.906;7.674;2022-10-16T06:54:17;4.90;;;2.78;;
11743;SDS011;5929;51.906;7.674;2022-10-16T06:56:44;6.68;;;3.00;;
11743;SDS011;5929;51.906;7.674;2022-10-16T06:59:11;4.40;;;2.30;;
11743;SDS011;5929;51.906;7.674;2022-10-16T07:01:38;6.47;;;3.05;;
11743;SDS011;5929;51.906;7.674;2022-10-16T07:04:05;6.20;;;2.80;;
11743;SDS011;5929;51.906;7.674;2022-10-16T07:06:33;5.38;;;3.03;;
11743;SDS011;5929;51.906;7.674;2022-10-16T07:09:01;4.50;;;2.40;;
11743;SDS011;5929;51.906;7.674;2022-10-16T07:11:31;7.45;;;2.70;;
11743;SDS011;5929;51.906;7.674;2022-10-16T07:13:58;6.55;;;2.28;;
11743;SDS011;5929;51.906;7.674;2022-10-16T07:16:26;4.88;;;2.40;;
11743;SDS011;5929;51.906;7.674;2022-10-16T07:18:54;5.00;;;2.40;;
11743;SDS011;5929;51.906;7.674;2022-10-16T07:21:26;5.68;;;2.45;;
11743;SDS011;5929;51.906;7.674;2022-10-16T07:23:56;5.38;;;2.60;;
11743;SDS011;5929;51.906;7.674;2022-10-16T07:26:26;4.35;;;2.20;;
11743;SDS011;5929;51.906;7.674;2022-10-16T07:28:55;4.85;;;2.50;;
11743;SDS011;5929;51.906;7.674;2022-10-16T07:31:22;6.03;;;2.40;;
11743;SDS011;5929;51.906;7.674;2022-10-16T07:33:49;4.97;;;2.30;;
11743;SDS011;5929;51.906;7.674;2022-10-16T07:36:17;5.18;;;2.10;;
11743;SDS011;5929;51.906;7.674;2022-10-16T07:38:45;6.13;;;1.92;;
11743;SDS011;5929;51.906;7.674;2022-10-16T07:41:14;9.02;;;2.33;;
11743;SDS011;5929;51.906;7.674;2022-10-16T07:43:45;4.82;;;2.35;;
11743;SDS011;5929;51.906;7.674;2022-10-16T07:46:13;4.60;;;2.33;;
11743;SDS011;5929;51.906;7.674;2022-10-16T07:48:41;4.20;;;2.10;;
11743;SDS011;5929;51.906;7.674;2022-10-16T07:51:10;4.93;;;2.22;;
11743;SDS011;5929;51.906;7.674;2022-10-16T07:53:38;5.45;;;2.15;;
11743;SDS011;5929;51.906;7.674;2022-10-16T07:56:05;6.53;;;2.33;;
11743;SDS011;5929;51.906;7.674;2022-10-16T07:58:34;6.10;;;2.10;;
11743;SDS011;5929;51.906;7.674;2022-10-16T08:01:02;5.63;;;2.30;;
11743;SDS011;5929;51.906;7.674;2022-10-16T08:03:30;6.60;;;2.30;;
11743;SDS011;5929;51.906;7.674;2022-10-16T08:05:57;7.03;;;2.35;;
11743;SDS011;5929;51.906;7.674;2022-10-16T08:08:25;4.53;;;2.35;;
11743;SDS011;5929;51.906;7.674;2022-10-16T08:10:52;3.78;;;1.73;;
11743;SDS011;5929;51.906;7.674;2022-10-16T08:13:20;4.90;;;2.00;;
11743;SDS011;5929;51.906;7.674;2022-10-16T08:15:48;5.80;;;2.08;;
11743;SDS011;5929;51.906;7.674;2022-10-16T08:18:15;4.78;;;2.10;;
11743;SDS011;5929;51.906;7.674;2022-10-16T08:20:42;4.40;;;2.10;;
11743;SDS011;5929;51.906;7.674;2022-10-16T08:23:09;4.85;;;2.15;;
11743;SDS011;5929;51.906;7.674;2022-10-16T08:25:37;5.57;;;2.65;;
11743;SDS011;5929;51.906;7.674;2022-10-16T08:28:04;5.75;;;2.30;;
11743;SDS011;5929;51.906;7.674;2022-10-16T08:30:32;6.15;;;1.95;;
11743;SDS011;5929;51.906;7.674;2022-10-16T08:33:01;7.85;;;2.40;;
11743;SDS011;5929;51.906;7.674;2022-10-16T08:35:28;6.85;;;2.38;;
11743;SDS011;5929;51.906;7.674;2022-10-16T08:37:55;6.90;;;2.63;;
11743;SDS011;5929;51.906;7.674;2022-10-16T08:40:22;5.40;;;2.40;;
11743;SDS011;5929;51.906;7.674;2022-10-16T08:42:54;4.63;;;2.25;;
11743;SDS011;5929;51.906;7.674;2022-10-16T08:45:39;7.47;;;2.17;;
11743;SDS011;5929;51.906;7.674;2022-10-16T08:48:17;6.40;;;2.13;;
11743;SDS011;5929;51.906;7.674;2022-10-16T08:50:47;9.77;;;2.50;;
11743;SDS011;5929;51.906;7.674;2022-10-16T08:53:18;4.50;;;2.05;;
11743;SDS011;5929;51.906;7.674;2022-10-16T08:55:49;5.72;;;1.92;;
11743;SDS011;5929;51.906;7.674;2022-10-16T08:58:18;7.68;;;2.20;;
11743;SDS011;5929;51.906;7.674;2022-10-16T09:00:46;5.35;;;2.10;;
11743;SDS011;5929;51.906;7.674;2022-10-16T09:03:20;7.45;;;2.20;;
11743;SDS011;5929;51.906;7.674;2022-10-16T09:08:57;4.95;;;2.22;;
11743;SDS011;5929;51.906;7.674;2022-10-16T09:11:36;5.38;;;1.80;;
11743;SDS011;5929;51.906;7.674;2022-10-16T09:14:13;6.25;;;1.95;;
11743;SDS011;5929;51.906;7.674;2022-10-16T09:16:51;5.78;;;1.83;;
11743;SDS011;5929;51.906;7.674;2022-10-16T09:19:29;7.10;;;1.80;;
11743;SDS011;5929;51.906;7.674;2022-10-16T09:22:04;4.75;;;1.80;;
11743;SDS011;5929;51.906;7.674;2022-10-16T09:24:38;3.17;;;1.15;;
11743;SDS011;5929;51.906;7.674;2022-10-16T09:27:07;5.60;;;1.45;;
11743;SDS011;5929;51.906;7.674;2022-10-16T09:29:36;9.30;;;1.85;;
11743;SDS011;5929;51.906;7.674;2022-10-16T09:32:07;7.18;;;1.65;;
11743;SDS011;5929;51.906;7.674;2022-10-16T09:34:41;4.03;;;1.50;;
11743;SDS011;5929;51.906;7.674;2022-10-16T09:37:11;5.15;;;1.77;;
11743;SDS011;5929;51.906;7.674;2022-10-16T09:39:46;7.68;;;1.80;;
11743;SDS011;5929;51.906;7.674;2022-10-16T09:42:17;6.82;;;1.73;;
11743;SDS011;5929;51.906;7.674;2022-10-16T09:44:47;5.38;;;1.50;;
11743;SDS011;5929;51.906;7.674;2022-10-16T09:47:16;7.63;;;1.30;;
11743;SDS011;5929;51.906;7.674;2022-10-16T09:49:54;4.53;;;1.60;;
11743;SDS011;5929;51.906;7.674;2022-10-16T09:52:23;6.70;;;1.33;;
11743;SDS011;5929;51.906;7.674;2022-10-16T09:54:51;5.63;;;1.58;;
11743;SDS011;5929;51.906;7.674;2022-10-16T09:57:19;8.15;;;1.85;;
11743;SDS011;5929;51.906;7.674;2022-10-16T09:59:46;6.53;;;1.83;;
11743;SDS011;5929;51.906;7.674;2022-10-16T10:02:15;3.10;;;1.10;;
11743;SDS011;5929;51.906;7.674;2022-10-16T10:04:44;7.55;;;1.48;;
11743;SDS011;5929;51.906;7.674;2022-10-16T10:07:18;4.15;;;1.50;;
11743;SDS011;5929;51.906;7.674;2022-10-16T10:09:49;5.90;;;1.63;;
11743;SDS011;5929;51.906;7.674;2022-10-16T10:12:17;7.40;;;1.77;;
11743;SDS011;5929;51.906;7.674;2022-10-16T10:14:46;7.03;;;1.88;;
11743;SDS011;5929;51.906;7.674;2022-10-16T10:17:15;7.88;;;1.83;;
11743;SDS011;5929;51.906;7.674;2022-10-16T10:19:51;7.15;;;2.45;;
11743;SDS011;5929;51.906;7.674;2022-10-16T10:22:24;6.22;;;2.00;;
11743;SDS011;5929;51.906;7.674;2022-10-16T10:24:56;6.78;;;2.03;;
11743;SDS011;5929;51.906;7.674;2022-10-16T10:27:28;5.60;;;1.73;;
11743;SDS011;5929;51.906;7.674;2022-10-16T10:30:05;4.95;;;1.40;;
11743;SDS011;5929;51.906;7.674;2022-10-16T10:32:40;4.97;;;1.52;;
11743;SDS011;5929;51.906;7.674;2022-10-16T10:35:16;8.10;;;1.40;;
11743;SDS011;5929;51.906;7.674;2022-10-16T10:37:58;6.90;;;1.75;;
11743;SDS011;5929;51.906;7.674;2022-10-16T10:40:38;7.00;;;1.25;;
11743;SDS011;5929;51.906;7.674;2022-10-16T10:43:14;7.45;;;1.45;;
11743;SDS011;5929;51.906;7.674;2022-10-16T10:45:51;6.13;;;1.60;;
11743;SDS011;5929;51.906;7.674;2022-10-16T10:48:31;4.70;;;1.20;;
11743;SDS011;5929;51.906;7.674;2022-10-16T10:51:12;6.55;;;1.52;;
11743;SDS011;5929;51.906;7.674;2022-10-16T10:53:49;4.75;;;1.40;;
11743;SDS011;5929;51.906;7.674;2022-10-16T10:56:28;5.90;;;1.30;;
11743;SDS011;5929;51.906;7.674;2022-10-16T10:59:11;5.63;;;1.10;;
11743;SDS011;5929;51.906;7.674;2022-10-16T11:01:56;5.82;;;1.40;;
11743;SDS011;5929;51.906;7.674;2022-10-16T11:07:34;5.38;;;0.90;;
11743;SDS011;5929;51.906;7.674;2022-10-16T11:10:09;5.03;;;0.95;;
11743;SDS011;5929;51.906;7.674;2022-10-16T11:12:41;3.38;;;0.70;;
11743;SDS011;5929;51.906;7.674;2022-10-16T11:15:12;6.57;;;1.00;;
11743;SDS011;5929;51.906;7.674;2022-10-16T11:17:43;5.32;;;0.80;;
11743;SDS011;5929;51.906;7.674;2022-10-16T11:20:16;6.28;;;1.30;;
11743;SDS011;5929;51.906;7.674;2022-10-16T11:22:47;7.40;;;1.00;;
11743;SDS011;5929;51.906;7.674;2022-10-16T11:25:20;4.30;;;1.02;;
11743;SDS011;5929;51.906;7.674;2022-10-16T11:27:50;2.83;;;0.70;;
11743;SDS011;5929;51.906;7.674;2022-10-16T11:30:24;6.90;;;1.23;;
11743;SDS011;5929;51.906;7.674;2022-10-16T11:32:56;4.32;;;1.00;;
11743;SDS011;5929;51.906;7.674;2022-10-16T11:35:32;5.22;;;0.88;;
11743;SDS011;5929;51.906;7.674;2022-10-16T11:38:07;6.30;;;1.20;;
11743;SDS011;5929;51.906;7.674;2022-10-16T11:40:40;4.65;;;0.93;;
11743;SDS011;5929;51.906;7.674;2022-10-16T11:43:10;4.97;;;1.00;;
11743;SDS011;5929;51.906;7.674;2022-10-16T11:45:42;5.22;;;1.02;;
11743;SDS011;5929;51.906;7.674;2022-10-16T11:48:15;2.03;;;0.70;;
11743;SDS011;5929;51.906;7.674;2022-10-16T11:50:49;3.28;;;0.57;;
11743;SDS011;5929;51.906;7.674;2022-10-16T11:53:21;5.70;;;0.95;;
11743;SDS011;5929;51.906;7.674;2022-10-16T11:55:59;4.07;;;0.90;;
11743;SDS011;5929;51.906;7.674;2022-10-16T11:58:27;4.78;;;1.00;;
11743;SDS011;5929;51.906;7.674;2022-10-16T12:01:00;3.65;;;0.80;;
11743;SDS011;5929;51.906;7.674;2022-10-16T12:03:40;4.28;;;0.90;;
11743;SDS011;5929;51.906;7.674;2022-10-16T12:06:14;3.13;;;0.85;;
11743;SDS011;5929;51.906;7.674;2022-10-16T12:08:50;7.78;;;1.30;;
11743;SDS011;5929;51.906;7.674;2022-10-16T12:11:24;3.95;;;0.98;;
11743;SDS011;5929;51.906;7.674;2022-10-16T12:14:19;5.05;;;1.10;;
11743;SDS011;5929;51.906;7.674;2022-10-16T12:16:51;3.85;;;0.80;;
11743;SDS011;5929;51.906;7.674;2022-10-16T12:19:21;4.53;;;0.70;;
11743;SDS011;5929;51.906;7.674;2022-10-16T12:21:49;3.50;;;0.80;;
11743;SDS011;5929;51.906;7.674;2022-10-16T12:24:21;3.85;;;0.90;;
11743;SDS011;5929;51.906;7.674;2022-10-16T12:26:55;3.08;;;0.68;;
11743;SDS011;5929;51.906;7.674;2022-10-16T12:29:23;5.43;;;1.10;;
11743;SDS011;5929;51.906;7.674;2022-10-16T12:31:57;4.40;;;0.75;;
11743;SDS011;5929;51.906;7.674;2022-10-16T12:34:28;3.72;;;0.70;;
11743;SDS011;5929;51.906;7.674;2022-10-16T12:37:07;3.58;;;0.75;;
11743;SDS011;5929;51.906;7.674;2022-10-16T12:39:37;4.32;;;0.68;;
11743;SDS011;5929;51.906;7.674;2022-10-16T12:42:17;4.15;;;0.70;;
11743;SDS011;5929;51.906;7.674;2022-10-16T12:44:47;5.18;;;0.93;;
11743;SDS011;5929;51.906;7.674;2022-10-16T12:47:20;5.45;;;0.85;;
11743;SDS011;5929;51.906;7.674;2022-10-16T12:49:49;3.38;;;0.70;;
11743;SDS011;5929;51.906;7.674;2022-10-16T12:52:23;4.68;;;0.93;;
11743;SDS011;5929;51.906;7.674;2022-10-16T12:54:55;4.78;;;0.68;;
11743;SDS011;5929;51.906;7.674;2022-10-16T12:57:32;2.72;;;0.55;;
11743;SDS011;5929;51.906;7.674;2022-10-16T13:00:13;5.75;;;1.05;;
11743;SDS011;5929;51.906;7.674;2022-10-16T13:02:51;4.88;;;0.90;;
11743;SDS011;5929;51.906;7.674;2022-10-16T13:05:52;3.47;;;0.80;;
11743;SDS011;5929;51.906;7.674;2022-10-16T13:08:35;4.35;;;0.90;;
11743;SDS011;5929;51.906;7.674;2022-10-16T13:11:17;3.22;;;0.60;;
11743;SDS011;5929;51.906;7.674;2022-10-16T13:16:49;5.20;;;0.95;;
11743;SDS011;5929;51.906;7.674;2022-10-16T13:19:22;3.00;;;0.93;;
11743;SDS011;5929;51.906;7.674;2022-10-16T13:21:56;6.32;;;1.15;;
11743;SDS011;5929;51.906;7.674;2022-10-16T13:24:36;3.95;;;1.02;;
11743;SDS011;5929;51.906;7.674;2022-10-16T13:27:14;5.05;;;1.00;;
11743;SDS011;5929;51.906;7.674;2022-10-16T13:29:53;4.43;;;1.42;;
11743;SDS011;5929;51.906;7.674;2022-10-16T13:32:26;5.35;;;1.23;;
11743;SDS011;5929;51.906;7.674;2022-10-16T13:34:57;2.55;;;0.90;;
11743;SDS011;5929;51.906;7.674;2022-10-16T13:37:26;8.10;;;1.45;;
11743;SDS011;5929;51.906;7.674;2022-10-16T13:40:02;3.25;;;1.00;;
11743;SDS011;5929;51.906;7.674;2022-10-16T13:42:43;4.07;;;1.15;;
11743;SDS011;5929;51.906;7.674;2022-10-16T13:45:21;3.45;;;0.90;;
11743;SDS011;5929;51.906;7.674;2022-10-16T13:47:50;4.55;;;1.00;;
11743;SDS011;5929;51.906;7.674;2022-10-16T13:50:27;4.80;;;1.30;;
11743;SDS011;5929;51.906;7.674;2022-10-16T13:53:02;4.72;;;1.23;;
11743;SDS011;5929;51.906;7.674;2022-10-16T13:55:30;4.32;;;1.30;;
11743;SDS011;5929;51.906;7.674;2022-10-16T13:58:04;5.88;;;1.10;;
11743;SDS011;5929;51.906;7.674;2022-10-16T14:00:33;3.80;;;0.88;;
11743;SDS011;5929;51.906;7.674;2022-10-16T14:03:02;4.20;;;1.13;;
11743;SDS011;5929;51.906;7.674;2022-10-16T14:05:31;4.05;;;1.10;;
11743;SDS011;5929;51.906;7.674;2022-10-16T14:07:58;6.25;;;1.17;;
11743;SDS011;5929;51.906;7.674;2022-10-16T14:10:27;5.82;;;1.20;;
11743;SDS011;5929;51.906;7.674;2022-10-16T14:12:57;4.68;;;1.20;;
11743;SDS011;5929;51.906;7.674;2022-10-16T14:15:26;5.50;;;1.13;;
11743;SDS011;5929;51.906;7.674;2022-10-16T14:17:56;3.85;;;1.10;;
11743;SDS011;5929;51.906;7.674;2022-10-16T14:20:25;5.20;;;1.10;;
11743;SDS011;5929;51.906;7.674;2022-10-16T14:23:00;5.60;;;1.08;;
11743;SDS011;5929;51.906;7.674;2022-10-16T14:25:29;7.57;;;0.98;;
11743;SDS011;5929;51.906;7.674;2022-10-16T14:27:58;5.38;;;1.15;;
11743;SDS011;5929;51.906;7.674;2022-10-16T14:30:30;4.97;;;1.10;;
11743;SDS011;5929;51.906;7.674;2022-10-16T14:33:00;3.13;;;1.00;;
11743;SDS011;5929;51.906;7.674;2022-10-16T14:35:29;5.32;;;0.98;;
11743;SDS011;5929;51.906;7.674;2022-10-16T14:37:58;2.83;;;0.90;;
11743;SDS011;5929;51.906;7.674;2022-10-16T14:40:26;3.85;;;0.95;;
11743;SDS011;5929;51.906;7.674;2022-10-16T14:42:55;5.53;;;0.98;;
11743;SDS011;5929;51.906;7.674;2022-10-16T14:45:23;4.95;;;1.40;;
11743;SDS011;5929;51.906;7.674;2022-10-16T14:47:53;4.43;;;1.33;;
11743;SDS011;5929;51.906;7.674;2022-10-16T14:50:25;5.78;;;1.30;;
11743;SDS011;5929;51.906;7.674;2022-10-16T14:52:52;6.30;;;1.10;;
11743;SDS011;5929;51.906;7.674;2022-10-16T14:55:19;6.47;;;1.20;;
11743;SDS011;5929;51.906;7.674;2022-10-16T14:57:46;6.40;;;1.50;;
11743;SDS011;5929;51.906;7.674;2022-10-16T15:00:15;3.75;;;1.13;;
11743;SDS011;5929;51.906;7.674;2022-10-16T15:02:45;4.05;;;1.23;;
11743;SDS011;5929;51.906;7.674;2022-10-16T15:05:14;5.65;;;0.95;;
11743;SDS011;5929;51.906;7.674;2022-10-16T15:07:44;7.05;;;1.38;;
11743;SDS011;5929;51.906;7.674;2022-10-16T15:10:11;5.45;;;1.10;;
11743;SDS011;5929;51.906;7.674;2022-10-16T15:12:39;5.38;;;1.20;;
11743;SDS011;5929;51.906;7.674;2022-10-16T15:15:15;4.40;;;1.15;;
11743;SDS011;5929;51.906;7.674;2022-10-16T15:17:53;4.88;;;1.42;;
11743;SDS011;5929;51.906;7.674;2022-10-16T15:20:22;4.55;;;1.00;;
11743;SDS011;5929;51.906;7.674;2022-10-16T15:22:51;5.53;;;1.30;;
11743;SDS011;5929;51.906;7.674;2022-10-16T15:25:25;8.55;;;1.40;;